西安 の空港の天気 - METARとTAF

西安咸陽国際空港 ( ZLXY / XIY ) - 中国 陝西省西安市
飛行場実況気象(Metar)
観測時間11/27 15:00 CST (11/27 07:00 UTC)
風向・風速南西 2m/s
視程1500m
天気現象もや
少しの雲 雲底高度 910m
全天を覆う雲 雲底高度 1830m
気温8℃
湿度93%
気圧1006hPa
METARZLXY 270700Z 23002MPS 1500 BR FEW030 OVC060 08/07 Q1006 BECMG TL0840 1400 BR
過去の天気等 Google飛行場航空写真 Wunderground天気予報

過去48時間のMETAR

飛行場予報(TAF)
発表時間: 11/27 11:10 CST (11/27 03:10 UTC)
予報対象時間: 27日14時 CST ~ 28日14時 CST
風向・風速東北東 3m/s
視程2000m
天気現象もや
なし
27日22時 CST ~ 27日23時 CST に徐々に
天気現象弱い雨
28日8時 CST ~ 28日9時 CST に徐々に
風向・風速西北西 5m/s
視程3000m
天気現象もや
TAF ZLXY 270310Z 2706/2806 06003MPS 2000 BR NSC TX12/2707Z TN09/2721Z
BECMG 2714/2715 -RA
BECMG 2800/2801 30005MPS 3000 BR